sensor_id;sensor_type;location;lat;lon;timestamp;temperature;humidity
3954;DHT22;1991;48.682;9.030;2022-08-19T00:01:44;20.50;99.90
3954;DHT22;1991;48.682;9.030;2022-08-19T00:04:12;20.50;99.90
3954;DHT22;1991;48.682;9.030;2022-08-19T00:06:39;20.40;99.90
3954;DHT22;1991;48.682;9.030;2022-08-19T00:09:06;20.40;99.90
3954;DHT22;1991;48.682;9.030;2022-08-19T00:11:33;20.40;99.90
3954;DHT22;1991;48.682;9.030;2022-08-19T00:14:03;20.40;99.90
3954;DHT22;1991;48.682;9.030;2022-08-19T00:16:29;20.40;99.90
3954;DHT22;1991;48.682;9.030;2022-08-19T00:18:55;20.40;99.90
3954;DHT22;1991;48.682;9.030;2022-08-19T00:21:25;20.40;99.90
3954;DHT22;1991;48.682;9.030;2022-08-19T00:23:52;20.40;99.90
3954;DHT22;1991;48.682;9.030;2022-08-19T00:26:18;20.40;99.90
3954;DHT22;1991;48.682;9.030;2022-08-19T00:28:45;20.40;99.90
3954;DHT22;1991;48.682;9.030;2022-08-19T00:31:11;20.40;99.90
3954;DHT22;1991;48.682;9.030;2022-08-19T00:33:37;20.40;99.90
3954;DHT22;1991;48.682;9.030;2022-08-19T00:36:06;20.40;99.90
3954;DHT22;1991;48.682;9.030;2022-08-19T00:38:33;20.30;99.90
3954;DHT22;1991;48.682;9.030;2022-08-19T00:40:59;20.40;99.90
3954;DHT22;1991;48.682;9.030;2022-08-19T00:43:26;20.30;99.90
3954;DHT22;1991;48.682;9.030;2022-08-19T00:45:53;20.30;99.90
3954;DHT22;1991;48.682;9.030;2022-08-19T00:48:19;20.20;99.90
3954;DHT22;1991;48.682;9.030;2022-08-19T00:50:48;20.30;99.90
3954;DHT22;1991;48.682;9.030;2022-08-19T00:53:17;20.20;99.90
3954;DHT22;1991;48.682;9.030;2022-08-19T00:55:49;20.20;99.90
3954;DHT22;1991;48.682;9.030;2022-08-19T00:58:22;20.20;99.90
3954;DHT22;1991;48.682;9.030;2022-08-19T01:00:49;20.20;99.90
3954;DHT22;1991;48.682;9.030;2022-08-19T01:03:18;20.20;99.90
3954;DHT22;1991;48.682;9.030;2022-08-19T01:05:45;20.10;99.90
3954;DHT22;1991;48.682;9.030;2022-08-19T01:08:11;20.10;99.90
3954;DHT22;1991;48.682;9.030;2022-08-19T01:10:42;20.20;99.90
3954;DHT22;1991;48.682;9.030;2022-08-19T01:13:09;20.20;99.90
3954;DHT22;1991;48.682;9.030;2022-08-19T01:15:47;20.20;99.90
3954;DHT22;1991;48.682;9.030;2022-08-19T01:18:16;20.10;99.90
3954;DHT22;1991;48.682;9.030;2022-08-19T01:20:43;20.10;99.90
3954;DHT22;1991;48.682;9.030;2022-08-19T01:23:09;20.10;99.90
3954;DHT22;1991;48.682;9.030;2022-08-19T01:25:46;20.10;99.90
3954;DHT22;1991;48.682;9.030;2022-08-19T01:28:21;20.10;99.90
3954;DHT22;1991;48.682;9.030;2022-08-19T01:30:47;20.10;99.90
3954;DHT22;1991;48.682;9.030;2022-08-19T01:33:13;20.10;99.90
3954;DHT22;1991;48.682;9.030;2022-08-19T01:35:40;20.10;99.90
3954;DHT22;1991;48.682;9.030;2022-08-19T01:38:09;20.10;99.90
3954;DHT22;1991;48.682;9.030;2022-08-19T01:40:37;20.10;99.90
3954;DHT22;1991;48.682;9.030;2022-08-19T01:43:04;20.10;99.90
3954;DHT22;1991;48.682;9.030;2022-08-19T01:45:33;20.10;99.90
3954;DHT22;1991;48.682;9.030;2022-08-19T01:47:59;20.00;99.90
3954;DHT22;1991;48.682;9.030;2022-08-19T01:50:24;20.00;99.90
3954;DHT22;1991;48.682;9.030;2022-08-19T01:52:51;20.00;99.90
3954;DHT22;1991;48.682;9.030;2022-08-19T01:55:19;19.90;99.90
3954;DHT22;1991;48.682;9.030;2022-08-19T01:57:48;19.80;99.90
3954;DHT22;1991;48.682;9.030;2022-08-19T02:00:18;19.80;99.90
3954;DHT22;1991;48.682;9.030;2022-08-19T02:02:44;19.80;99.90
3954;DHT22;1991;48.682;9.030;2022-08-19T02:05:11;19.80;99.90
3954;DHT22;1991;48.682;9.030;2022-08-19T02:07:39;19.80;99.90
3954;DHT22;1991;48.682;9.030;2022-08-19T02:10:07;19.80;99.90
3954;DHT22;1991;48.682;9.030;2022-08-19T02:12:33;19.80;99.90
3954;DHT22;1991;48.682;9.030;2022-08-19T02:14:59;19.80;99.90
3954;DHT22;1991;48.682;9.030;2022-08-19T02:17:26;19.70;99.90
3954;DHT22;1991;48.682;9.030;2022-08-19T02:19:54;19.70;99.90
3954;DHT22;1991;48.682;9.030;2022-08-19T02:22:20;19.80;99.90
3954;DHT22;1991;48.682;9.030;2022-08-19T02:24:46;19.80;99.90
3954;DHT22;1991;48.682;9.030;2022-08-19T02:27:14;19.80;99.90
3954;DHT22;1991;48.682;9.030;2022-08-19T02:29:40;19.80;99.90
3954;DHT22;1991;48.682;9.030;2022-08-19T02:32:06;19.80;99.90
3954;DHT22;1991;48.682;9.030;2022-08-19T02:34:32;19.80;99.90
3954;DHT22;1991;48.682;9.030;2022-08-19T02:36:57;19.80;99.90
3954;DHT22;1991;48.682;9.030;2022-08-19T02:39:23;19.70;99.90
3954;DHT22;1991;48.682;9.030;2022-08-19T02:41:48;19.70;99.90
3954;DHT22;1991;48.682;9.030;2022-08-19T02:44:15;19.70;99.90
3954;DHT22;1991;48.682;9.030;2022-08-19T02:46:40;19.70;99.90
3954;DHT22;1991;48.682;9.030;2022-08-19T02:49:07;19.70;99.90
3954;DHT22;1991;48.682;9.030;2022-08-19T02:51:39;19.70;99.90
3954;DHT22;1991;48.682;9.030;2022-08-19T02:54:07;19.60;99.90
3954;DHT22;1991;48.682;9.030;2022-08-19T02:56:35;19.60;99.90
3954;DHT22;1991;48.682;9.030;2022-08-19T02:59:02;19.60;99.90
3954;DHT22;1991;48.682;9.030;2022-08-19T03:01:32;19.70;99.90
3954;DHT22;1991;48.682;9.030;2022-08-19T03:03:59;19.70;99.90
3954;DHT22;1991;48.682;9.030;2022-08-19T03:06:26;19.60;99.90
3954;DHT22;1991;48.682;9.030;2022-08-19T03:08:53;19.60;99.90
3954;DHT22;1991;48.682;9.030;2022-08-19T03:11:22;19.60;99.90
3954;DHT22;1991;48.682;9.030;2022-08-19T03:13:48;19.50;99.90
3954;DHT22;1991;48.682;9.030;2022-08-19T03:16:21;19.50;99.90
3954;DHT22;1991;48.682;9.030;2022-08-19T03:18:48;19.50;99.90
3954;DHT22;1991;48.682;9.030;2022-08-19T03:21:21;19.50;99.90
3954;DHT22;1991;48.682;9.030;2022-08-19T03:23:47;19.50;99.90
3954;DHT22;1991;48.682;9.030;2022-08-19T03:26:13;19.40;99.90
3954;DHT22;1991;48.682;9.030;2022-08-19T03:28:44;19.40;99.90
3954;DHT22;1991;48.682;9.030;2022-08-19T03:31:12;19.40;99.90
3954;DHT22;1991;48.682;9.030;2022-08-19T03:33:40;19.40;99.90
3954;DHT22;1991;48.682;9.030;2022-08-19T03:36:13;19.40;99.90
3954;DHT22;1991;48.682;9.030;2022-08-19T03:38:45;19.30;99.90
3954;DHT22;1991;48.682;9.030;2022-08-19T03:41:16;19.30;99.90
3954;DHT22;1991;48.682;9.030;2022-08-19T03:43:43;19.30;99.90
3954;DHT22;1991;48.682;9.030;2022-08-19T03:46:12;19.30;99.90
3954;DHT22;1991;48.682;9.030;2022-08-19T03:48:39;19.30;99.90
3954;DHT22;1991;48.682;9.030;2022-08-19T03:51:07;19.30;99.90
3954;DHT22;1991;48.682;9.030;2022-08-19T03:53:34;19.30;99.90
3954;DHT22;1991;48.682;9.030;2022-08-19T03:56:00;19.30;99.90
3954;DHT22;1991;48.682;9.030;2022-08-19T03:58:28;19.30;99.90
3954;DHT22;1991;48.682;9.030;2022-08-19T04:00:55;19.30;99.90
3954;DHT22;1991;48.682;9.030;2022-08-19T04:03:21;19.30;99.90
3954;DHT22;1991;48.682;9.030;2022-08-19T04:05:47;19.30;99.90
3954;DHT22;1991;48.682;9.030;2022-08-19T04:08:13;19.30;99.90
3954;DHT22;1991;48.682;9.030;2022-08-19T04:10:38;19.30;99.90
3954;DHT22;1991;48.682;9.030;2022-08-19T04:13:05;19.30;99.90
3954;DHT22;1991;48.682;9.030;2022-08-19T04:15:32;19.20;99.90
3954;DHT22;1991;48.682;9.030;2022-08-19T04:18:04;19.30;99.90
3954;DHT22;1991;48.682;9.030;2022-08-19T04:20:37;19.20;99.90
3954;DHT22;1991;48.682;9.030;2022-08-19T04:23:03;19.20;99.90
3954;DHT22;1991;48.682;9.030;2022-08-19T04:25:43;19.20;99.90
3954;DHT22;1991;48.682;9.030;2022-08-19T04:28:11;19.20;99.90
3954;DHT22;1991;48.682;9.030;2022-08-19T04:30:43;19.20;99.90
3954;DHT22;1991;48.682;9.030;2022-08-19T04:33:10;19.20;99.90
3954;DHT22;1991;48.682;9.030;2022-08-19T04:35:37;19.20;99.90
3954;DHT22;1991;48.682;9.030;2022-08-19T04:38:03;19.20;99.90
3954;DHT22;1991;48.682;9.030;2022-08-19T04:40:29;19.20;99.90
3954;DHT22;1991;48.682;9.030;2022-08-19T04:43:21;19.20;99.90
3954;DHT22;1991;48.682;9.030;2022-08-19T04:45:47;19.20;99.90
3954;DHT22;1991;48.682;9.030;2022-08-19T04:48:13;19.20;99.90
3954;DHT22;1991;48.682;9.030;2022-08-19T04:50:43;19.20;99.90
3954;DHT22;1991;48.682;9.030;2022-08-19T04:53:09;19.20;99.90
3954;DHT22;1991;48.682;9.030;2022-08-19T04:55:39;19.20;99.90
3954;DHT22;1991;48.682;9.030;2022-08-19T04:58:05;19.20;99.90
3954;DHT22;1991;48.682;9.030;2022-08-19T05:00:31;19.20;99.90
3954;DHT22;1991;48.682;9.030;2022-08-19T05:02:57;19.20;99.90
3954;DHT22;1991;48.682;9.030;2022-08-19T05:05:23;19.20;99.90
3954;DHT22;1991;48.682;9.030;2022-08-19T05:07:48;19.20;99.90
3954;DHT22;1991;48.682;9.030;2022-08-19T05:10:14;19.20;99.90
3954;DHT22;1991;48.682;9.030;2022-08-19T05:12:40;19.30;99.90
3954;DHT22;1991;48.682;9.030;2022-08-19T05:15:06;19.30;99.90
3954;DHT22;1991;48.682;9.030;2022-08-19T05:17:33;19.30;99.90
3954;DHT22;1991;48.682;9.030;2022-08-19T05:19:59;19.30;99.90
3954;DHT22;1991;48.682;9.030;2022-08-19T05:22:46;19.30;99.90
3954;DHT22;1991;48.682;9.030;2022-08-19T05:25:14;19.30;99.90
3954;DHT22;1991;48.682;9.030;2022-08-19T05:27:41;19.30;99.90
3954;DHT22;1991;48.682;9.030;2022-08-19T05:30:08;19.30;99.90
3954;DHT22;1991;48.682;9.030;2022-08-19T05:32:34;19.30;99.90
3954;DHT22;1991;48.682;9.030;2022-08-19T05:34:59;19.30;99.90
3954;DHT22;1991;48.682;9.030;2022-08-19T05:37:27;19.30;99.90
3954;DHT22;1991;48.682;9.030;2022-08-19T05:39:57;19.30;99.90
3954;DHT22;1991;48.682;9.030;2022-08-19T05:42:23;19.30;99.90
3954;DHT22;1991;48.682;9.030;2022-08-19T05:44:49;19.30;99.90
3954;DHT22;1991;48.682;9.030;2022-08-19T05:47:16;19.40;99.90
3954;DHT22;1991;48.682;9.030;2022-08-19T05:49:42;19.40;99.90
3954;DHT22;1991;48.682;9.030;2022-08-19T05:52:11;19.40;99.90
3954;DHT22;1991;48.682;9.030;2022-08-19T05:54:38;19.40;99.90
3954;DHT22;1991;48.682;9.030;2022-08-19T05:57:05;19.40;99.90
3954;DHT22;1991;48.682;9.030;2022-08-19T05:59:32;19.40;99.90
3954;DHT22;1991;48.682;9.030;2022-08-19T06:02:00;19.40;99.90
3954;DHT22;1991;48.682;9.030;2022-08-19T06:04:26;19.40;99.90
3954;DHT22;1991;48.682;9.030;2022-08-19T06:06:53;19.50;99.90
3954;DHT22;1991;48.682;9.030;2022-08-19T06:09:21;19.50;99.90
3954;DHT22;1991;48.682;9.030;2022-08-19T06:11:49;19.50;99.90
3954;DHT22;1991;48.682;9.030;2022-08-19T06:14:21;19.50;99.90
3954;DHT22;1991;48.682;9.030;2022-08-19T06:16:48;19.50;99.90
3954;DHT22;1991;48.682;9.030;2022-08-19T06:19:16;19.60;99.90
3954;DHT22;1991;48.682;9.030;2022-08-19T06:21:44;19.60;99.90
3954;DHT22;1991;48.682;9.030;2022-08-19T06:24:11;19.60;99.90
3954;DHT22;1991;48.682;9.030;2022-08-19T06:26:40;19.70;99.90
3954;DHT22;1991;48.682;9.030;2022-08-19T06:29:08;19.70;99.90
3954;DHT22;1991;48.682;9.030;2022-08-19T06:31:35;19.70;99.90
3954;DHT22;1991;48.682;9.030;2022-08-19T06:34:05;19.80;99.90
3954;DHT22;1991;48.682;9.030;2022-08-19T06:36:38;19.80;99.90
3954;DHT22;1991;48.682;9.030;2022-08-19T06:39:06;19.70;99.90
3954;DHT22;1991;48.682;9.030;2022-08-19T06:41:35;19.70;99.90
3954;DHT22;1991;48.682;9.030;2022-08-19T06:44:03;19.80;99.90
3954;DHT22;1991;48.682;9.030;2022-08-19T06:46:28;19.80;99.90
3954;DHT22;1991;48.682;9.030;2022-08-19T06:48:57;19.80;99.90
3954;DHT22;1991;48.682;9.030;2022-08-19T06:51:23;19.80;99.90
3954;DHT22;1991;48.682;9.030;2022-08-19T06:53:51;19.80;99.90
3954;DHT22;1991;48.682;9.030;2022-08-19T06:56:20;19.80;99.90
3954;DHT22;1991;48.682;9.030;2022-08-19T06:58:46;19.90;99.90
3954;DHT22;1991;48.682;9.030;2022-08-19T07:01:12;19.90;99.90
3954;DHT22;1991;48.682;9.030;2022-08-19T07:03:38;20.00;99.90
3954;DHT22;1991;48.682;9.030;2022-08-19T07:06:06;20.00;99.90
3954;DHT22;1991;48.682;9.030;2022-08-19T07:08:33;19.90;99.90
3954;DHT22;1991;48.682;9.030;2022-08-19T07:11:00;20.00;99.90
3954;DHT22;1991;48.682;9.030;2022-08-19T07:13:26;20.10;99.90
3954;DHT22;1991;48.682;9.030;2022-08-19T07:15:52;20.20;99.90
3954;DHT22;1991;48.682;9.030;2022-08-19T07:18:19;20.30;99.90
3954;DHT22;1991;48.682;9.030;2022-08-19T07:20:45;20.30;99.90
3954;DHT22;1991;48.682;9.030;2022-08-19T07:23:11;20.30;99.90
3954;DHT22;1991;48.682;9.030;2022-08-19T07:25:37;20.40;99.90
3954;DHT22;1991;48.682;9.030;2022-08-19T07:28:04;20.50;99.90
3954;DHT22;1991;48.682;9.030;2022-08-19T07:30:30;20.60;99.90
3954;DHT22;1991;48.682;9.030;2022-08-19T07:32:56;20.60;99.90
3954;DHT22;1991;48.682;9.030;2022-08-19T07:35:22;20.60;99.90
3954;DHT22;1991;48.682;9.030;2022-08-19T07:37:49;20.60;99.90
3954;DHT22;1991;48.682;9.030;2022-08-19T07:40:15;20.60;99.90
3954;DHT22;1991;48.682;9.030;2022-08-19T07:42:41;20.60;99.90
3954;DHT22;1991;48.682;9.030;2022-08-19T07:45:08;20.50;99.90
3954;DHT22;1991;48.682;9.030;2022-08-19T07:47:33;20.40;99.90
3954;DHT22;1991;48.682;9.030;2022-08-19T07:49:59;20.40;99.90
3954;DHT22;1991;48.682;9.030;2022-08-19T07:52:25;20.40;99.90
3954;DHT22;1991;48.682;9.030;2022-08-19T07:54:50;20.40;99.90
3954;DHT22;1991;48.682;9.030;2022-08-19T07:57:16;20.40;99.90
3954;DHT22;1991;48.682;9.030;2022-08-19T07:59:42;20.40;99.90
3954;DHT22;1991;48.682;9.030;2022-08-19T08:02:08;20.40;99.90
3954;DHT22;1991;48.682;9.030;2022-08-19T08:04:34;20.40;99.90
3954;DHT22;1991;48.682;9.030;2022-08-19T08:07:19;20.30;99.90
3954;DHT22;1991;48.682;9.030;2022-08-19T08:10:06;20.30;99.90
3954;DHT22;1991;48.682;9.030;2022-08-19T08:12:39;20.20;99.90
3954;DHT22;1991;48.682;9.030;2022-08-19T08:15:12;20.20;99.90
3954;DHT22;1991;48.682;9.030;2022-08-19T08:17:41;20.20;99.90
3954;DHT22;1991;48.682;9.030;2022-08-19T08:20:08;20.10;99.90
3954;DHT22;1991;48.682;9.030;2022-08-19T08:22:34;20.10;99.90
3954;DHT22;1991;48.682;9.030;2022-08-19T08:25:21;20.10;99.90
3954;DHT22;1991;48.682;9.030;2022-08-19T08:27:48;20.10;99.90
3954;DHT22;1991;48.682;9.030;2022-08-19T08:30:23;20.10;99.90
3954;DHT22;1991;48.682;9.030;2022-08-19T08:32:50;20.10;99.90
3954;DHT22;1991;48.682;9.030;2022-08-19T08:35:18;20.00;99.90
3954;DHT22;1991;48.682;9.030;2022-08-19T08:37:45;20.00;99.90
3954;DHT22;1991;48.682;9.030;2022-08-19T08:43:03;20.00;99.90
3954;DHT22;1991;48.682;9.030;2022-08-19T08:45:33;20.00;99.90
3954;DHT22;1991;48.682;9.030;2022-08-19T08:48:04;20.00;99.90
3954;DHT22;1991;48.682;9.030;2022-08-19T08:50:36;20.00;99.90
3954;DHT22;1991;48.682;9.030;2022-08-19T08:53:06;20.00;99.90
3954;DHT22;1991;48.682;9.030;2022-08-19T08:55:33;20.00;99.90
3954;DHT22;1991;48.682;9.030;2022-08-19T08:58:12;20.00;99.90
3954;DHT22;1991;48.682;9.030;2022-08-19T09:00:44;20.10;99.90
3954;DHT22;1991;48.682;9.030;2022-08-19T09:03:21;20.20;99.90
3954;DHT22;1991;48.682;9.030;2022-08-19T09:06:03;20.20;99.90
3954;DHT22;1991;48.682;9.030;2022-08-19T09:16:44;20.60;99.90
3954;DHT22;1991;48.682;9.030;2022-08-19T09:19:09;20.70;99.90
3954;DHT22;1991;48.682;9.030;2022-08-19T09:21:36;20.80;99.90
3954;DHT22;1991;48.682;9.030;2022-08-19T09:24:04;20.90;99.90
3954;DHT22;1991;48.682;9.030;2022-08-19T09:26:32;20.90;99.90
3954;DHT22;1991;48.682;9.030;2022-08-19T09:28:58;20.90;99.90
3954;DHT22;1991;48.682;9.030;2022-08-19T09:31:26;21.00;99.90
3954;DHT22;1991;48.682;9.030;2022-08-19T09:33:53;20.90;99.90
3954;DHT22;1991;48.682;9.030;2022-08-19T09:36:24;21.00;99.90
3954;DHT22;1991;48.682;9.030;2022-08-19T09:38:52;20.90;99.90
3954;DHT22;1991;48.682;9.030;2022-08-19T09:41:21;20.90;99.90
3954;DHT22;1991;48.682;9.030;2022-08-19T09:43:49;20.90;99.90
3954;DHT22;1991;48.682;9.030;2022-08-19T09:46:17;20.90;99.90
3954;DHT22;1991;48.682;9.030;2022-08-19T09:48:45;20.90;99.90
3954;DHT22;1991;48.682;9.030;2022-08-19T09:51:15;20.80;99.90
3954;DHT22;1991;48.682;9.030;2022-08-19T09:53:42;20.90;99.90
3954;DHT22;1991;48.682;9.030;2022-08-19T09:56:09;20.90;99.90
3954;DHT22;1991;48.682;9.030;2022-08-19T09:58:35;20.80;99.90
3954;DHT22;1991;48.682;9.030;2022-08-19T10:01:02;20.80;99.90
3954;DHT22;1991;48.682;9.030;2022-08-19T10:03:29;20.80;99.90
3954;DHT22;1991;48.682;9.030;2022-08-19T10:06:00;20.90;99.90
3954;DHT22;1991;48.682;9.030;2022-08-19T10:08:30;20.90;99.90
3954;DHT22;1991;48.682;9.030;2022-08-19T10:10:57;21.00;99.90
3954;DHT22;1991;48.682;9.030;2022-08-19T10:13:25;21.00;99.90
3954;DHT22;1991;48.682;9.030;2022-08-19T10:15:52;21.10;99.90
3954;DHT22;1991;48.682;9.030;2022-08-19T10:18:20;21.10;99.90
3954;DHT22;1991;48.682;9.030;2022-08-19T10:20:47;21.10;99.90
3954;DHT22;1991;48.682;9.030;2022-08-19T10:23:14;21.10;99.90
3954;DHT22;1991;48.682;9.030;2022-08-19T10:25:40;21.20;99.90
3954;DHT22;1991;48.682;9.030;2022-08-19T10:28:06;21.20;99.90
3954;DHT22;1991;48.682;9.030;2022-08-19T10:30:33;21.20;99.90
3954;DHT22;1991;48.682;9.030;2022-08-19T10:32:59;21.20;99.90
3954;DHT22;1991;48.682;9.030;2022-08-19T10:35:24;21.30;99.90
3954;DHT22;1991;48.682;9.030;2022-08-19T10:37:53;21.30;99.90
3954;DHT22;1991;48.682;9.030;2022-08-19T10:40:18;21.30;99.90
3954;DHT22;1991;48.682;9.030;2022-08-19T10:42:44;21.20;99.90
3954;DHT22;1991;48.682;9.030;2022-08-19T10:45:10;21.30;99.90
3954;DHT22;1991;48.682;9.030;2022-08-19T10:47:36;21.40;99.90
3954;DHT22;1991;48.682;9.030;2022-08-19T10:50:02;21.40;99.90
3954;DHT22;1991;48.682;9.030;2022-08-19T10:52:49;21.40;99.90
3954;DHT22;1991;48.682;9.030;2022-08-19T10:55:15;21.40;99.90
3954;DHT22;1991;48.682;9.030;2022-08-19T10:57:59;21.40;99.90
3954;DHT22;1991;48.682;9.030;2022-08-19T11:00:25;21.40;99.90
3954;DHT22;1991;48.682;9.030;2022-08-19T11:02:51;21.50;99.90
3954;DHT22;1991;48.682;9.030;2022-08-19T11:05:17;21.60;99.90
3954;DHT22;1991;48.682;9.030;2022-08-19T11:07:43;21.60;99.90
3954;DHT22;1991;48.682;9.030;2022-08-19T11:10:11;21.70;99.90
3954;DHT22;1991;48.682;9.030;2022-08-19T11:12:39;21.70;99.90
3954;DHT22;1991;48.682;9.030;2022-08-19T11:15:09;21.80;99.90
3954;DHT22;1991;48.682;9.030;2022-08-19T11:17:39;21.90;99.90
3954;DHT22;1991;48.682;9.030;2022-08-19T11:20:10;21.90;99.90
3954;DHT22;1991;48.682;9.030;2022-08-19T11:22:38;21.90;99.90
3954;DHT22;1991;48.682;9.030;2022-08-19T11:25:04;22.00;99.90
3954;DHT22;1991;48.682;9.030;2022-08-19T11:27:30;22.00;99.90
3954;DHT22;1991;48.682;9.030;2022-08-19T11:29:55;22.00;99.90
3954;DHT22;1991;48.682;9.030;2022-08-19T11:32:21;22.00;99.90
3954;DHT22;1991;48.682;9.030;2022-08-19T11:34:47;22.00;99.90
3954;DHT22;1991;48.682;9.030;2022-08-19T11:37:12;22.00;99.90
3954;DHT22;1991;48.682;9.030;2022-08-19T11:39:38;22.00;99.90
3954;DHT22;1991;48.682;9.030;2022-08-19T11:42:06;22.00;99.90
3954;DHT22;1991;48.682;9.030;2022-08-19T11:44:51;22.00;99.90
3954;DHT22;1991;48.682;9.030;2022-08-19T11:47:16;22.10;99.90
3954;DHT22;1991;48.682;9.030;2022-08-19T11:49:42;22.10;99.90
3954;DHT22;1991;48.682;9.030;2022-08-19T11:52:08;22.10;99.90
3954;DHT22;1991;48.682;9.030;2022-08-19T11:54:34;22.10;99.90
3954;DHT22;1991;48.682;9.030;2022-08-19T11:57:02;22.10;99.90
3954;DHT22;1991;48.682;9.030;2022-08-19T11:59:28;22.10;99.90
3954;DHT22;1991;48.682;9.030;2022-08-19T12:01:54;22.10;99.90
3954;DHT22;1991;48.682;9.030;2022-08-19T12:04:21;22.10;99.90
3954;DHT22;1991;48.682;9.030;2022-08-19T12:06:47;22.20;99.90
3954;DHT22;1991;48.682;9.030;2022-08-19T12:09:12;22.20;99.70
3954;DHT22;1991;48.682;9.030;2022-08-19T12:11:39;22.30;99.40
3954;DHT22;1991;48.682;9.030;2022-08-19T12:14:06;22.30;99.00
3954;DHT22;1991;48.682;9.030;2022-08-19T12:16:34;22.40;99.10
3954;DHT22;1991;48.682;9.030;2022-08-19T12:19:00;22.40;98.80
3954;DHT22;1991;48.682;9.030;2022-08-19T12:21:31;22.40;98.50
3954;DHT22;1991;48.682;9.030;2022-08-19T12:23:58;22.50;98.30
3954;DHT22;1991;48.682;9.030;2022-08-19T12:26:26;22.50;98.30
3954;DHT22;1991;48.682;9.030;2022-08-19T12:28:52;22.60;97.50
3954;DHT22;1991;48.682;9.030;2022-08-19T12:31:18;22.70;97.30
3954;DHT22;1991;48.682;9.030;2022-08-19T12:33:45;22.80;97.40
3954;DHT22;1991;48.682;9.030;2022-08-19T12:36:13;22.90;96.80
3954;DHT22;1991;48.682;9.030;2022-08-19T12:38:40;22.90;96.60
3954;DHT22;1991;48.682;9.030;2022-08-19T12:41:09;23.00;95.80
3954;DHT22;1991;48.682;9.030;2022-08-19T12:43:36;23.00;95.80
3954;DHT22;1991;48.682;9.030;2022-08-19T12:46:06;23.10;96.10
3954;DHT22;1991;48.682;9.030;2022-08-19T12:48:33;23.10;95.40
3954;DHT22;1991;48.682;9.030;2022-08-19T12:50:59;23.20;94.80
3954;DHT22;1991;48.682;9.030;2022-08-19T12:53:25;23.20;94.70
3954;DHT22;1991;48.682;9.030;2022-08-19T12:55:57;23.20;94.60
3954;DHT22;1991;48.682;9.030;2022-08-19T12:58:23;23.10;93.90
3954;DHT22;1991;48.682;9.030;2022-08-19T13:00:48;23.00;94.30
3954;DHT22;1991;48.682;9.030;2022-08-19T13:03:14;22.90;93.50
3954;DHT22;1991;48.682;9.030;2022-08-19T13:05:41;22.90;93.90
3954;DHT22;1991;48.682;9.030;2022-08-19T13:08:06;22.90;93.50
3954;DHT22;1991;48.682;9.030;2022-08-19T13:10:34;22.90;92.90
3954;DHT22;1991;48.682;9.030;2022-08-19T13:13:02;22.80;92.80
3954;DHT22;1991;48.682;9.030;2022-08-19T13:15:28;22.80;92.50
3954;DHT22;1991;48.682;9.030;2022-08-19T13:17:57;22.80;92.30
3954;DHT22;1991;48.682;9.030;2022-08-19T13:20:23;22.80;92.30
3954;DHT22;1991;48.682;9.030;2022-08-19T13:22:49;22.80;91.80
3954;DHT22;1991;48.682;9.030;2022-08-19T13:25:15;22.90;91.90
3954;DHT22;1991;48.682;9.030;2022-08-19T13:27:43;22.90;91.50
3954;DHT22;1991;48.682;9.030;2022-08-19T13:30:11;23.00;90.80
3954;DHT22;1991;48.682;9.030;2022-08-19T13:32:55;23.10;90.70
3954;DHT22;1991;48.682;9.030;2022-08-19T13:35:37;23.10;90.50
3954;DHT22;1991;48.682;9.030;2022-08-19T13:38:02;23.10;89.50
3954;DHT22;1991;48.682;9.030;2022-08-19T13:40:30;23.20;90.10
3954;DHT22;1991;48.682;9.030;2022-08-19T13:42:56;23.10;89.40
3954;DHT22;1991;48.682;9.030;2022-08-19T13:45:24;23.20;89.30
3954;DHT22;1991;48.682;9.030;2022-08-19T13:47:51;23.20;89.50
3954;DHT22;1991;48.682;9.030;2022-08-19T13:50:21;23.10;89.70
3954;DHT22;1991;48.682;9.030;2022-08-19T13:52:47;23.10;90.40
3954;DHT22;1991;48.682;9.030;2022-08-19T13:55:15;23.20;90.40
3954;DHT22;1991;48.682;9.030;2022-08-19T13:57:41;23.20;91.30
3954;DHT22;1991;48.682;9.030;2022-08-19T14:00:10;23.40;91.30
3954;DHT22;1991;48.682;9.030;2022-08-19T14:02:37;23.40;90.90
3954;DHT22;1991;48.682;9.030;2022-08-19T14:05:06;23.50;90.70
3954;DHT22;1991;48.682;9.030;2022-08-19T14:07:32;23.50;91.00
3954;DHT22;1991;48.682;9.030;2022-08-19T14:09:58;23.50;90.90
3954;DHT22;1991;48.682;9.030;2022-08-19T14:12:23;23.40;90.50
3954;DHT22;1991;48.682;9.030;2022-08-19T14:14:49;23.40;90.90
3954;DHT22;1991;48.682;9.030;2022-08-19T14:17:15;23.40;91.00
3954;DHT22;1991;48.682;9.030;2022-08-19T14:19:41;23.50;90.80
3954;DHT22;1991;48.682;9.030;2022-08-19T14:22:07;23.70;90.70
3954;DHT22;1991;48.682;9.030;2022-08-19T14:24:33;23.90;90.30
3954;DHT22;1991;48.682;9.030;2022-08-19T14:26:59;24.00;89.30
3954;DHT22;1991;48.682;9.030;2022-08-19T14:29:26;24.00;88.30
3954;DHT22;1991;48.682;9.030;2022-08-19T14:31:54;24.00;87.70
3954;DHT22;1991;48.682;9.030;2022-08-19T14:34:22;24.00;88.00
3954;DHT22;1991;48.682;9.030;2022-08-19T14:36:48;23.80;87.00
3954;DHT22;1991;48.682;9.030;2022-08-19T14:39:13;23.80;87.10
3954;DHT22;1991;48.682;9.030;2022-08-19T14:41:40;23.70;86.80
3954;DHT22;1991;48.682;9.030;2022-08-19T14:44:06;23.70;86.40
3954;DHT22;1991;48.682;9.030;2022-08-19T14:46:31;23.70;86.70
3954;DHT22;1991;48.682;9.030;2022-08-19T14:48:57;23.60;87.30
3954;DHT22;1991;48.682;9.030;2022-08-19T14:51:25;23.60;86.70
3954;DHT22;1991;48.682;9.030;2022-08-19T14:53:53;23.70;87.40
3954;DHT22;1991;48.682;9.030;2022-08-19T14:56:22;23.80;87.00
3954;DHT22;1991;48.682;9.030;2022-08-19T14:58:48;23.90;86.50
3954;DHT22;1991;48.682;9.030;2022-08-19T15:01:17;24.00;85.40
3954;DHT22;1991;48.682;9.030;2022-08-19T15:03:45;24.10;85.80
3954;DHT22;1991;48.682;9.030;2022-08-19T15:06:12;24.20;90.00
3954;DHT22;1991;48.682;9.030;2022-08-19T15:08:39;24.20;90.00
3954;DHT22;1991;48.682;9.030;2022-08-19T15:11:11;24.20;89.70
3954;DHT22;1991;48.682;9.030;2022-08-19T15:13:38;24.10;86.10
3954;DHT22;1991;48.682;9.030;2022-08-19T15:16:05;24.20;85.90
3954;DHT22;1991;48.682;9.030;2022-08-19T15:18:30;24.30;84.90
3954;DHT22;1991;48.682;9.030;2022-08-19T15:20:56;24.30;84.30
3954;DHT22;1991;48.682;9.030;2022-08-19T15:23:22;24.40;82.80
3954;DHT22;1991;48.682;9.030;2022-08-19T15:25:48;24.50;83.20
3954;DHT22;1991;48.682;9.030;2022-08-19T15:28:14;24.70;81.70
3954;DHT22;1991;48.682;9.030;2022-08-19T15:30:41;24.70;78.50
3954;DHT22;1991;48.682;9.030;2022-08-19T15:33:10;25.00;79.10
3954;DHT22;1991;48.682;9.030;2022-08-19T15:35:35;25.30;77.50
3954;DHT22;1991;48.682;9.030;2022-08-19T15:38:01;25.60;76.60
3954;DHT22;1991;48.682;9.030;2022-08-19T15:40:27;25.80;76.80
3954;DHT22;1991;48.682;9.030;2022-08-19T15:42:53;25.90;76.50
3954;DHT22;1991;48.682;9.030;2022-08-19T15:45:20;26.00;75.80
3954;DHT22;1991;48.682;9.030;2022-08-19T15:47:47;25.90;74.90
3954;DHT22;1991;48.682;9.030;2022-08-19T15:50:16;25.90;73.80
3954;DHT22;1991;48.682;9.030;2022-08-19T15:52:51;25.90;73.50
3954;DHT22;1991;48.682;9.030;2022-08-19T15:55:19;25.90;73.50
3954;DHT22;1991;48.682;9.030;2022-08-19T15:57:46;25.90;73.70
3954;DHT22;1991;48.682;9.030;2022-08-19T16:00:31;25.90;73.10
3954;DHT22;1991;48.682;9.030;2022-08-19T16:03:15;25.90;74.10
3954;DHT22;1991;48.682;9.030;2022-08-19T16:05:59;25.80;73.90
3954;DHT22;1991;48.682;9.030;2022-08-19T16:08:44;25.70;73.70
3954;DHT22;1991;48.682;9.030;2022-08-19T16:11:11;25.70;74.20
3954;DHT22;1991;48.682;9.030;2022-08-19T16:13:37;25.60;72.50
3954;DHT22;1991;48.682;9.030;2022-08-19T16:16:04;25.60;73.30
3954;DHT22;1991;48.682;9.030;2022-08-19T16:18:30;25.50;73.40